Time;durP1;ratioP1;P1;durP2;ratioP2;P2;SDS_P1;SDS_P2;PMS_P1;PMS_P2;Temp;Humidity;BMP_temperature;BMP_pressure;BME280_temperature;BME280_humidity;BME280_pressure;Samples;Min_cycle;Max_cycle;Signal;HPM_P1;HPM_P2
2021/09/21 00:01:34;;;;;;;5.10;3.65;;;;;;;7.59;80.33;98108.16;1722342;82;20979;-79
2021/09/21 00:04:00;;;;;;;6.55;3.60;;;;;;;7.55;81.09;98110.45;1720898;82;21579;-80
2021/09/21 00:06:27;;;;;;;4.95;3.60;;;;;;;7.48;80.16;98113.63;1736433;83;21022;-79
2021/09/21 00:08:53;;;;;;;6.65;3.98;;;;;;;7.43;80.11;98112.83;1736823;82;21042;-79
2021/09/21 00:11:20;;;;;;;5.10;3.75;;;;;;;7.37;80.38;98113.77;1736426;82;21046;-79
2021/09/21 00:13:47;;;;;;;5.37;3.87;;;;;;;7.31;80.21;98111.23;1736897;82;21046;-79
2021/09/21 00:16:14;;;;;;;6.08;4.42;;;;;;;7.20;80.18;98108.74;1750195;82;20965;-79
2021/09/21 00:18:41;;;;;;;7.35;4.00;;;;;;;7.08;80.30;98109.78;1761388;81;21472;-80
2021/09/21 00:21:07;;;;;;;5.20;3.90;;;;;;;7.02;80.23;98116.00;1757037;81;21093;-79
2021/09/21 00:23:34;;;;;;;7.80;3.85;;;;;;;6.92;80.65;98115.26;1739361;81;21372;-79
2021/09/21 00:26:01;;;;;;;5.45;3.80;;;;;;;6.83;81.00;98108.79;1730435;82;20995;-79
2021/09/21 00:28:27;;;;;;;5.90;3.70;;;;;;;6.78;80.60;98110.18;1744244;81;21010;-79
2021/09/21 00:30:56;;;;;;;6.00;3.67;;;;;;;6.72;80.53;98112.86;1747845;82;21423;-79
2021/09/21 00:33:23;;;;;;;6.12;3.65;;;;;;;6.69;80.84;98108.97;1747866;82;21065;-80
2021/09/21 00:35:52;;;;;;;6.22;4.08;;;;;;;6.63;81.76;98111.22;1748042;81;20975;-80
2021/09/21 00:38:21;;;;;;;5.78;3.80;;;;;;;6.61;80.86;98118.28;1747610;82;21013;-79
2021/09/21 00:40:49;;;;;;;6.30;4.60;;;;;;;6.54;80.54;98113.95;1747782;82;21440;-80
2021/09/21 00:43:23;;;;;;;6.47;4.15;;;;;;;6.47;80.91;98120.62;1747693;82;21451;-79
2021/09/21 00:45:52;;;;;;;5.20;3.55;;;;;;;6.43;81.78;98124.59;1744067;81;20983;-80
2021/09/21 00:48:21;;;;;;;7.45;4.03;;;;;;;6.36;81.13;98122.50;1733650;82;20993;-79
2021/09/21 00:50:49;;;;;;;7.58;5.20;;;;;;;6.30;81.10;98130.44;1733667;81;22030;-80
2021/09/21 00:53:17;;;;;;;6.72;3.77;;;;;;;6.25;81.74;98126.98;1734661;81;21498;-80
2021/09/21 00:55:46;;;;;;;5.70;3.77;;;;;;;6.19;81.29;98128.79;1749700;81;20979;-79
2021/09/21 00:58:13;;;;;;;7.62;4.50;;;;;;;6.18;81.22;98128.80;1758796;81;21044;-80
2021/09/21 01:00:40;;;;;;;6.78;4.15;;;;;;;6.10;81.46;98129.34;1750715;82;21484;-80
2021/09/21 01:03:07;;;;;;;6.08;3.87;;;;;;;6.04;82.57;98127.19;1762026;81;20993;-80
2021/09/21 01:05:36;;;;;;;6.08;4.45;;;;;;;5.94;84.20;98122.41;1756909;81;21340;-80
2021/09/21 01:08:03;;;;;;;6.33;4.33;;;;;;;5.96;82.75;98123.72;1705116;83;21015;-80
2021/09/21 01:10:31;;;;;;;6.10;4.50;;;;;;;5.94;82.80;98127.67;1752414;81;21071;-81
2021/09/21 01:12:58;;;;;;;7.92;5.15;;;;;;;5.88;82.04;98119.84;1764842;81;21005;-80
2021/09/21 01:15:25;;;;;;;5.83;4.50;;;;;;;5.85;82.21;98133.47;1725814;80;21479;-80
2021/09/21 01:17:55;;;;;;;6.40;4.33;;;;;;;5.85;82.17;98129.52;1719813;83;21034;-81
2021/09/21 01:20:21;;;;;;;6.67;4.25;;;;;;;5.87;82.27;98119.84;1705346;83;20983;-80
2021/09/21 01:22:48;;;;;;;7.62;4.35;;;;;;;5.86;83.22;98121.59;1759682;81;21449;-80
2021/09/21 01:25:15;;;;;;;7.22;4.53;;;;;;;5.85;82.70;98114.59;1764726;81;21040;-80
2021/09/21 01:27:42;;;;;;;8.30;4.85;;;;;;;5.86;83.01;98113.70;1764428;81;21425;-80
2021/09/21 01:30:13;;;;;;;6.95;4.50;;;;;;;5.82;84.51;98119.90;1734096;82;29476;-80
2021/09/21 01:32:40;;;;;;;4.83;3.77;;;;;;;5.83;83.05;98111.12;1721191;82;21477;-80
2021/09/21 01:35:07;;;;;;;7.90;4.50;;;;;;;5.81;83.83;98115.07;1725535;82;20999;-80
2021/09/21 01:37:34;;;;;;;5.42;3.62;;;;;;;5.79;84.19;98107.65;1755768;80;20991;-80
2021/09/21 01:40:02;;;;;;;6.42;4.15;;;;;;;5.79;83.33;98114.66;1745470;80;21000;-80
2021/09/21 01:42:28;;;;;;;5.17;3.87;;;;;;;5.77;83.95;98110.72;1750267;82;20968;-79
2021/09/21 01:44:55;;;;;;;8.73;4.03;;;;;;;5.81;83.87;98115.50;1750285;82;21074;-80
2021/09/21 01:47:23;;;;;;;5.22;3.35;;;;;;;5.84;83.21;98113.28;1744376;80;21359;-80
2021/09/21 01:52:20;;;;;;;7.53;4.05;;;;;;;5.90;83.41;98120.69;1722113;82;21016;-80
2021/09/21 02:00:16;;;;;;;4.33;3.35;;;;;;;5.99;82.51;98123.70;1734458;82;20981;-80
2021/09/21 02:02:42;;;;;;;4.45;3.30;;;;;;;6.02;82.94;98127.59;1729625;81;21468;-80
2021/09/21 02:05:09;;;;;;;4.85;3.12;;;;;;;6.02;82.81;98118.85;1733807;81;21054;-80
2021/09/21 02:07:36;;;;;;;4.30;2.98;;;;;;;6.03;82.73;98129.83;1720204;82;21014;-80
2021/09/21 02:10:05;;;;;;;4.25;3.22;;;;;;;5.99;82.89;98137.28;1726697;83;21494;-80
2021/09/21 02:12:31;;;;;;;4.33;2.95;;;;;;;5.95;83.25;98129.41;1716576;81;21078;-81
2021/09/21 02:15:00;;;;;;;4.12;2.90;;;;;;;5.96;83.30;98144.77;1734683;83;21023;-80
2021/09/21 02:17:28;;;;;;;3.65;2.77;;;;;;;5.98;83.39;98138.18;1734516;83;21011;-80
2021/09/21 02:19:55;;;;;;;5.28;3.30;;;;;;;6.01;83.15;98134.19;1736324;82;20971;-80
2021/09/21 02:22:22;;;;;;;4.87;2.90;;;;;;;6.01;83.27;98143.39;1760937;81;20999;-80
2021/09/21 02:24:49;;;;;;;4.47;3.22;;;;;;;6.03;83.58;98137.72;1747416;81;20982;-80
2021/09/21 02:27:15;;;;;;;6.95;3.77;;;;;;;5.91;83.25;98142.19;1734515;82;21035;-81
2021/09/21 02:29:42;;;;;;;5.37;3.35;;;;;;;5.84;83.26;98137.84;1739752;81;20980;-80
2021/09/21 02:32:08;;;;;;;6.58;4.05;;;;;;;5.78;83.11;98151.91;1727618;82;21008;-81
2021/09/21 02:34:35;;;;;;;5.72;3.80;;;;;;;5.74;83.50;98156.78;1741994;82;21010;-80
2021/09/21 02:37:02;;;;;;;5.20;3.98;;;;;;;5.75;83.23;98157.20;1746632;81;21447;-80
2021/09/21 02:39:28;;;;;;;5.28;3.95;;;;;;;5.72;83.28;98155.05;1746431;82;21395;-80
2021/09/21 02:41:55;;;;;;;6.00;3.95;;;;;;;5.69;83.03;98159.86;1746605;82;21073;-77
2021/09/21 02:44:21;;;;;;;7.83;4.17;;;;;;;5.64;83.14;98160.33;1747854;81;20994;-76
2021/09/21 02:46:48;;;;;;;5.83;3.25;;;;;;;5.59;82.97;98164.33;1752549;81;20963;-77
2021/09/21 02:49:14;;;;;;;5.30;3.95;;;;;;;5.56;82.93;98169.59;1753143;82;21003;-77
2021/09/21 02:51:41;;;;;;;6.08;4.20;;;;;;;5.48;83.77;98170.95;1770065;80;20993;-77
2021/09/21 02:54:07;;;;;;;6.62;4.15;;;;;;;5.40;83.39;98171.00;1775982;80;21006;-76
2021/09/21 02:56:33;;;;;;;4.87;3.45;;;;;;;5.36;83.66;98166.64;1750350;82;21391;-77
2021/09/21 02:59:00;;;;;;;4.62;3.72;;;;;;;5.31;84.45;98171.52;1738160;82;21033;-77
2021/09/21 03:01:26;;;;;;;5.35;3.90;;;;;;;5.23;83.70;98172.41;1753435;81;21021;-77
2021/09/21 03:03:56;;;;;;;7.47;3.98;;;;;;;5.17;84.19;98175.51;1749427;82;21026;-77
2021/09/21 03:06:29;;;;;;;6.03;3.72;;;;;;;5.10;84.42;98172.92;1751200;81;21059;-77
2021/09/21 03:08:51;;;;;;;5.85;3.33;;;;;;;5.05;85.54;98179.06;1750711;81;21418;-77
2021/09/21 03:11:22;;;;;;;5.80;3.80;;;;;;;4.99;85.39;98190.03;1750699;82;21015;-77
2021/09/21 03:18:57;;;;;;;6.35;4.12;;;;;;;4.95;84.15;98192.69;1747572;81;21006;-77
2021/09/21 03:21:24;;;;;;;6.65;3.40;;;;;;;4.96;84.54;98187.86;1740514;81;20967;-77
2021/09/21 03:23:51;;;;;;;5.97;4.15;;;;;;;4.96;84.63;98196.63;1728202;81;20974;-77
2021/09/21 03:26:18;;;;;;;4.10;3.08;;;;;;;4.95;85.68;98201.88;1717657;83;21577;-77
2021/09/21 03:28:45;;;;;;;10.08;4.30;;;;;;;4.94;84.84;98202.77;1717783;83;21041;-77
2021/09/21 03:31:11;;;;;;;4.97;3.45;;;;;;;4.89;86.71;98198.83;1734754;81;21017;-77
2021/09/21 03:33:38;;;;;;;20.45;3.90;;;;;;;4.89;85.01;98208.02;1747432;82;20991;-77
2021/09/21 03:36:05;;;;;;;4.42;2.95;;;;;;;4.89;85.00;98210.22;1747656;82;21006;-77
2021/09/21 03:38:33;;;;;;;5.12;3.27;;;;;;;4.87;85.48;98203.22;1749561;80;21014;-77
2021/09/21 03:40:59;;;;;;;4.95;3.20;;;;;;;4.89;84.90;98204.96;1750715;82;21018;-77
2021/09/21 03:43:26;;;;;;;5.40;3.50;;;;;;;4.90;84.50;98213.70;1756949;81;21000;-77
2021/09/21 03:45:52;;;;;;;4.00;3.15;;;;;;;4.88;84.18;98220.72;1723534;81;20989;-77
2021/09/21 03:48:19;;;;;;;3.87;2.62;;;;;;;4.87;84.29;98223.77;1749772;81;21033;-77
2021/09/21 03:50:45;;;;;;;8.03;2.77;;;;;;;4.84;84.18;98219.86;1751762;80;21451;-77
2021/09/21 03:53:13;;;;;;;5.70;2.98;;;;;;;4.84;84.18;98216.35;1746318;82;21038;-77
2021/09/21 03:55:40;;;;;;;6.92;2.98;;;;;;;4.79;83.89;98213.75;1747376;82;21104;-77
2021/09/21 03:58:06;;;;;;;6.05;2.80;;;;;;;4.78;83.98;98209.38;1758364;80;21016;-76
2021/09/21 04:00:33;;;;;;;5.25;3.02;;;;;;;4.78;83.81;98215.06;1781750;80;21067;-78
2021/09/21 04:02:59;;;;;;;6.28;3.35;;;;;;;4.75;83.99;98200.19;1761073;81;20997;-77
2021/09/21 04:05:26;;;;;;;5.17;3.22;;;;;;;4.75;83.75;98214.63;1779307;81;20993;-76
2021/09/21 04:07:53;;;;;;;4.10;3.00;;;;;;;4.71;83.72;98216.40;1779345;80;21125;-76
2021/09/21 04:10:19;;;;;;;3.92;2.70;;;;;;;4.72;83.88;98218.14;1762228;80;21009;-76
2021/09/21 04:12:46;;;;;;;4.75;3.25;;;;;;;4.69;84.31;98225.16;1765218;80;20970;-77
2021/09/21 04:15:13;;;;;;;5.37;3.10;;;;;;;4.67;84.04;98219.02;1782099;80;21045;-77
2021/09/21 04:17:39;;;;;;;3.90;2.85;;;;;;;4.65;84.29;98211.14;1750374;80;20958;-77
2021/09/21 04:20:07;;;;;;;6.17;3.20;;;;;;;4.66;83.86;98221.22;1738344;80;21039;-77
2021/09/21 04:22:34;;;;;;;7.10;3.45;;;;;;;4.66;83.97;98226.47;1765480;80;20957;-78
2021/09/21 04:25:00;;;;;;;3.72;2.47;;;;;;;4.66;84.10;98215.97;1774043;80;21077;-78
2021/09/21 04:27:30;;;;;;;3.20;2.25;;;;;;;4.66;83.90;98222.10;1753550;82;21003;-78
2021/09/21 04:30:00;;;;;;;3.20;2.10;;;;;;;4.67;83.96;98230.83;1753300;81;21017;-78
2021/09/21 04:32:24;;;;;;;4.45;2.60;;;;;;;4.73;83.78;98234.75;1725609;81;21024;-78
2021/09/21 04:34:51;;;;;;;5.20;3.33;;;;;;;4.79;83.60;98236.50;1769024;81;21416;-78
2021/09/21 04:37:17;;;;;;;3.40;2.47;;;;;;;4.82;83.71;98229.94;1779132;80;21470;-78
2021/09/21 04:39:44;;;;;;;3.92;2.67;;;;;;;4.83;83.79;98235.62;1756429;81;21074;-78
2021/09/21 04:42:12;;;;;;;3.02;2.15;;;;;;;4.87;84.37;98236.91;1753454;82;21045;-78
2021/09/21 04:44:40;;;;;;;3.05;2.02;;;;;;;4.94;84.19;98232.97;1744375;80;21027;-78
2021/09/21 04:47:07;;;;;;;3.27;2.25;;;;;;;5.02;84.05;98240.36;1749788;80;21002;-78
2021/09/21 04:49:34;;;;;;;4.37;2.10;;;;;;;5.08;84.36;98234.23;1723371;83;20982;-78
2021/09/21 04:52:02;;;;;;;4.62;2.50;;;;;;;5.14;84.30;98240.77;1745230;82;20966;-78
2021/09/21 04:54:28;;;;;;;2.92;2.05;;;;;;;5.22;84.40;98252.13;1753593;80;21416;-78
2021/09/21 04:56:55;;;;;;;5.15;2.08;;;;;;;5.27;84.49;98245.10;1753288;82;20998;-78
2021/09/21 04:59:22;;;;;;;2.95;1.70;;;;;;;5.33;84.29;98245.95;1742286;82;21025;-77
2021/09/21 05:01:48;;;;;;;3.33;1.70;;;;;;;5.38;84.33;98256.89;1757900;80;20990;-78
2021/09/21 05:04:15;;;;;;;3.83;2.05;;;;;;;5.45;84.40;98260.38;1763783;80;21038;-78
2021/09/21 05:06:41;;;;;;;2.27;1.80;;;;;;;5.51;84.16;98257.70;1763484;81;21034;-78
2021/09/21 05:09:12;;;;;;;2.83;1.90;;;;;;;5.55;84.01;98259.44;1758795;81;21379;-78
2021/09/21 05:11:36;;;;;;;4.10;2.00;;;;;;;5.59;83.96;98265.55;1748646;81;21022;-78
2021/09/21 05:14:02;;;;;;;4.22;1.90;;;;;;;5.63;83.60;98270.34;1747637;82;21023;-78
2021/09/21 05:16:28;;;;;;;2.98;1.92;;;;;;;5.67;83.67;98271.66;1749221;81;21111;-78
2021/09/21 05:18:55;;;;;;;4.03;2.33;;;;;;;5.68;83.38;98271.19;1756312;81;20999;-78
2021/09/21 05:21:21;;;;;;;4.10;2.50;;;;;;;5.67;83.32;98278.23;1755905;81;20986;-77
2021/09/21 05:23:48;;;;;;;5.58;2.90;;;;;;;5.72;83.37;98277.33;1772214;81;20979;-77
2021/09/21 05:26:16;;;;;;;4.05;2.65;;;;;;;5.76;83.42;98282.98;1778317;81;21022;-77
2021/09/21 05:28:42;;;;;;;4.70;2.70;;;;;;;5.79;83.31;98286.49;1754849;80;20990;-77
2021/09/21 05:31:08;;;;;;;3.42;2.58;;;;;;;5.81;83.24;98290.41;1747429;81;21451;-77
2021/09/21 05:33:35;;;;;;;7.17;2.95;;;;;;;5.84;83.35;98294.77;1747616;82;21065;-78
2021/09/21 05:36:01;;;;;;;4.87;2.40;;;;;;;5.84;83.43;98289.52;1739726;81;20957;-78
2021/09/21 05:38:29;;;;;;;4.25;2.27;;;;;;;5.86;83.11;98289.94;1747801;82;21002;-78
2021/09/21 05:40:55;;;;;;;2.58;2.02;;;;;;;5.87;83.29;98298.28;1760547;81;20972;-78
2021/09/21 05:43:22;;;;;;;3.55;2.00;;;;;;;5.88;83.10;98302.66;1723018;82;21410;-78
2021/09/21 05:45:49;;;;;;;3.70;1.90;;;;;;;5.93;82.71;98310.08;1737241;81;20975;-78
2021/09/21 05:48:15;;;;;;;5.40;2.10;;;;;;;5.99;82.22;98318.81;1741196;81;21052;-77
2021/09/21 05:50:41;;;;;;;3.37;1.80;;;;;;;6.03;81.29;98313.55;1771960;81;21349;-77
2021/09/21 05:53:08;;;;;;;2.62;1.72;;;;;;;6.07;80.96;98320.55;1774648;81;20998;-78
2021/09/21 05:55:34;;;;;;;3.60;1.87;;;;;;;6.12;81.08;98323.16;1774426;81;21018;-77
2021/09/21 05:58:01;;;;;;;2.75;1.75;;;;;;;6.17;81.68;98327.06;1733849;81;21010;-77
2021/09/21 06:00:27;;;;;;;4.37;1.50;;;;;;;6.22;81.70;98323.11;1734343;81;21022;-77
2021/09/21 06:02:54;;;;;;;2.85;1.62;;;;;;;6.25;80.05;98324.38;1742257;82;21038;-77
2021/09/21 06:05:21;;;;;;;2.95;1.65;;;;;;;6.30;81.23;98318.22;1747333;81;21465;-77
2021/09/21 06:07:50;;;;;;;2.27;1.70;;;;;;;6.37;81.31;98323.42;1739362;81;21022;-76
2021/09/21 06:10:20;;;;;;;3.50;1.47;;;;;;;6.40;81.24;98319.00;1738549;82;20987;-77
2021/09/21 06:12:47;;;;;;;1.98;1.50;;;;;;;6.46;81.38;98320.30;1735789;81;20986;-75
2021/09/21 06:15:15;;;;;;;2.58;1.82;;;;;;;6.52;80.90;98315.41;1757931;80;21038;-77
2021/09/21 06:17:43;;;;;;;2.12;1.47;;;;;;;6.59;81.02;98326.77;1747965;81;20987;-83
2021/09/21 06:20:13;;;;;;;4.55;2.02;;;;;;;6.65;81.28;98324.53;1746338;81;21038;-82
2021/09/21 06:22:43;;;;;;;2.58;1.60;;;;;;;6.72;80.82;98317.00;1737773;81;21049;-83
2021/09/21 06:25:11;;;;;;;2.60;1.90;;;;;;;6.79;81.04;98307.28;1720615;82;20975;-83
2021/09/21 06:27:38;;;;;;;2.50;1.65;;;;;;;6.85;81.02;98306.78;1735143;83;21565;-84
2021/09/21 06:30:12;;;;;;;4.10;2.17;;;;;;;6.92;80.88;98306.72;1735656;82;20959;-82
2021/09/21 06:32:42;;;;;;;2.45;1.70;;;;;;;6.99;80.90;98307.10;1736443;82;20995;-82
2021/09/21 06:35:10;;;;;;;3.37;1.92;;;;;;;7.05;80.73;98315.41;1750588;82;20992;-83
2021/09/21 06:37:37;;;;;;;3.33;1.60;;;;;;;7.12;80.61;98314.44;1747531;82;20985;-84
2021/09/21 06:40:05;;;;;;;4.53;1.80;;;;;;;7.18;78.83;98319.63;1709221;83;21004;-82
2021/09/21 06:42:33;;;;;;;2.55;1.60;;;;;;;7.31;77.82;98316.41;1718189;83;21009;-82
2021/09/21 06:45:04;;;;;;;4.65;1.67;;;;;;;7.43;78.72;98319.36;1713501;81;21054;-84
2021/09/21 06:47:32;;;;;;;6.42;2.52;;;;;;;7.52;79.15;98312.66;1735482;81;21418;-86
2021/09/21 06:50:03;;;;;;;4.17;1.60;;;;;;;7.60;79.24;98319.16;1712032;82;21035;-85
2021/09/21 06:52:30;;;;;;;5.85;2.00;;;;;;;7.69;73.41;98306.32;1733047;82;21025;-85
2021/09/21 06:54:59;;;;;;;2.72;1.80;;;;;;;7.77;76.22;98316.77;1754809;82;21068;-86
2021/09/21 06:57:26;;;;;;;2.67;1.60;;;;;;;7.86;76.65;98321.93;1755313;81;21059;-84
2021/09/21 06:59:57;;;;;;;2.62;1.62;;;;;;;7.94;73.61;98324.47;1712325;83;21079;-85
2021/09/21 07:02:25;;;;;;;6.58;3.77;;;;;;;8.01;74.54;98316.87;1737352;82;20978;-84
2021/09/21 07:04:52;;;;;;;7.97;5.22;;;;;;;8.13;73.79;98324.18;1738614;81;21061;-84
2021/09/21 07:07:18;;;;;;;2.50;1.72;;;;;;;8.22;74.31;98313.48;1711598;84;21047;-85
2021/09/21 07:09:45;;;;;;;3.27;1.80;;;;;;;8.32;73.16;98315.56;1717590;83;21155;-84
2021/09/21 07:12:12;;;;;;;2.20;1.57;;;;;;;8.40;72.28;98322.05;1711469;83;21031;-86
2021/09/21 07:14:39;;;;;;;3.22;1.80;;;;;;;8.48;71.92;98322.80;1718518;82;21074;-88
2021/09/21 07:17:07;;;;;;;2.33;1.62;;;;;;;8.59;73.26;98329.25;1737529;82;20970;-87
2021/09/21 07:19:33;;;;;;;2.42;1.65;;;;;;;8.67;70.59;98331.33;1738778;82;21007;-87
2021/09/21 07:22:00;;;;;;;2.25;1.70;;;;;;;8.68;66.96;98332.21;1738553;82;21057;-88
2021/09/21 07:24:26;;;;;;;2.33;1.60;;;;;;;8.73;69.39;98337.41;1738671;82;21073;-87
2021/09/21 07:26:53;;;;;;;2.37;1.52;;;;;;;8.77;69.92;98328.09;1742374;80;20953;-86
2021/09/21 07:29:19;;;;;;;2.67;1.30;;;;;;;8.85;68.52;98334.57;1755216;82;20988;-85
2021/09/21 07:31:46;;;;;;;3.17;2.08;;;;;;;8.94;67.60;98331.77;1756572;82;21007;-85
2021/09/21 07:34:12;;;;;;;3.25;1.42;;;;;;;9.00;67.77;98332.56;1755298;81;21001;-85
2021/09/21 07:36:39;;;;;;;3.08;2.27;;;;;;;9.05;68.26;98332.87;1747707;81;20948;-86
2021/09/21 07:39:06;;;;;;;1.87;1.37;;;;;;;9.11;69.19;98335.41;1778491;80;21015;-88
2021/09/21 07:41:33;;;;;;;2.40;1.57;;;;;;;9.17;69.14;98335.75;1733400;82;21033;-87
2021/09/21 07:43:59;;;;;;;2.22;1.60;;;;;;;9.22;68.77;98339.19;1738940;82;21030;-86
2021/09/21 07:46:26;;;;;;;3.17;1.70;;;;;;;9.29;68.62;98333.33;1738934;82;21053;-87
2021/09/21 07:48:59;;;;;;;2.47;1.52;;;;;;;9.36;67.11;98337.63;1741893;82;21053;-87
2021/09/21 07:51:25;;;;;;;4.15;2.45;;;;;;;9.41;66.20;98326.05;1750243;82;21001;-87
2021/09/21 07:53:52;;;;;;;3.75;1.67;;;;;;;9.50;68.32;98340.42;1756394;81;21044;-88
2021/09/21 07:56:18;;;;;;;3.25;1.80;;;;;;;9.58;67.13;98336.30;1756801;81;21048;-88
2021/09/21 07:58:47;;;;;;;2.62;1.62;;;;;;;9.62;67.26;98332.26;1758313;81;21080;-88
2021/09/21 08:01:14;;;;;;;3.45;1.40;;;;;;;9.67;64.88;98353.32;1757854;81;20996;-87
2021/09/21 08:03:40;;;;;;;2.02;1.20;;;;;;;9.76;66.29;98343.02;1745056;82;21501;-87
2021/09/21 08:06:08;;;;;;;2.08;1.42;;;;;;;9.80;64.31;98349.12;1739093;81;21467;-87
2021/09/21 08:08:38;;;;;;;2.70;1.45;;;;;;;9.82;62.88;98350.83;1738722;82;21332;-89
2021/09/21 08:11:05;;;;;;;2.50;1.55;;;;;;;9.84;65.66;98352.13;1739149;82;21404;-88
2021/09/21 08:13:31;;;;;;;2.60;1.55;;;;;;;9.91;66.12;98348.43;1738880;82;21490;-87
2021/09/21 08:15:58;;;;;;;3.67;2.12;;;;;;;9.98;66.54;98351.38;1738735;82;21036;-88
2021/09/21 08:18:24;;;;;;;5.42;2.15;;;;;;;10.03;64.14;98350.83;1738728;82;20955;-87
2021/09/21 08:20:51;;;;;;;3.05;1.27;;;;;;;10.11;64.71;98353.31;1741182;82;21061;-88
2021/09/21 08:23:17;;;;;;;1.92;1.30;;;;;;;10.23;63.29;98350.84;1756600;81;20988;-83
2021/09/21 08:25:44;;;;;;;1.72;1.10;;;;;;;10.28;64.23;98353.38;1756538;81;21044;-87
2021/09/21 08:28:11;;;;;;;2.42;1.60;;;;;;;10.28;59.49;98342.78;1756447;81;21493;-88
2021/09/21 08:30:38;;;;;;;2.00;1.30;;;;;;;10.42;63.18;98339.80;1750087;81;20992;-88
2021/09/21 08:33:04;;;;;;;1.90;1.30;;;;;;;10.53;63.09;98344.89;1752924;81;20975;-87
2021/09/21 08:35:31;;;;;;;2.12;1.47;;;;;;;10.59;61.88;98343.88;1760512;81;21002;-87
2021/09/21 08:37:59;;;;;;;2.47;1.40;;;;;;;10.57;60.94;98357.16;1774802;80;21058;-87
2021/09/21 08:40:26;;;;;;;3.10;2.55;;;;;;;10.55;61.70;98351.89;1774770;81;20982;-86
2021/09/21 08:42:52;;;;;;;2.05;1.55;;;;;;;10.59;62.07;98347.38;1744982;81;21617;-86
2021/09/21 08:45:19;;;;;;;3.72;1.80;;;;;;;10.64;62.05;98348.61;1752605;80;20945;-86
2021/09/21 08:47:46;;;;;;;1.92;1.40;;;;;;;10.75;62.01;98354.52;1764557;80;21035;-87
2021/09/21 08:50:13;;;;;;;2.58;1.30;;;;;;;10.76;59.66;98352.75;1764381;81;21011;-86
2021/09/21 08:52:42;;;;;;;2.95;1.50;;;;;;;10.86;60.07;98357.35;1764766;81;21421;-87
2021/09/21 08:55:12;;;;;;;1.65;1.30;;;;;;;10.87;60.31;98350.69;1764528;81;21004;-87
2021/09/21 08:57:40;;;;;;;2.33;1.50;;;;;;;10.91;60.15;98358.11;1753790;81;21409;-87
2021/09/21 09:00:11;;;;;;;1.77;1.32;;;;;;;10.93;59.34;98348.35;1744303;82;21064;-87
2021/09/21 09:02:38;;;;;;;2.70;1.45;;;;;;;10.99;60.44;98350.84;1744160;82;20982;-86
2021/09/21 09:05:11;;;;;;;1.85;1.37;;;;;;;11.05;59.89;98372.37;1761284;80;21006;-87
2021/09/21 09:07:55;;;;;;;1.90;1.57;;;;;;;11.00;58.29;98363.19;1777931;80;20979;-87
2021/09/21 09:10:25;;;;;;;1.27;1.00;;;;;;;11.03;59.62;98349.86;1754964;80;21435;-87
2021/09/21 09:12:52;;;;;;;3.72;1.55;;;;;;;11.18;59.48;98348.56;1746722;82;21057;-86
2021/09/21 09:15:25;;;;;;;1.92;1.45;;;;;;;11.21;57.07;98362.20;1746729;82;20966;-86
2021/09/21 09:18:01;;;;;;;2.52;1.47;;;;;;;11.17;58.93;98357.92;1753153;81;20992;-85
2021/09/21 09:20:38;;;;;;;2.08;1.47;;;;;;;11.16;59.34;98362.34;1750690;81;21029;-85
2021/09/21 09:23:07;;;;;;;1.77;1.20;;;;;;;11.22;59.43;98359.52;1750193;82;20995;-87
2021/09/21 09:25:47;;;;;;;1.92;1.57;;;;;;;11.35;58.59;98360.06;1756496;81;20988;-86
2021/09/21 09:28:23;;;;;;;1.50;1.10;;;;;;;11.44;55.67;98358.08;1747260;81;21022;-87
2021/09/21 09:30:53;;;;;;;2.27;1.20;;;;;;;11.47;56.29;98377.44;1738046;82;21337;-87
2021/09/21 09:33:22;;;;;;;1.30;1.20;;;;;;;11.47;56.36;98368.63;1738654;82;21424;-87
2021/09/21 09:35:51;;;;;;;1.62;1.27;;;;;;;11.42;57.27;98359.91;1767713;81;20931;-86
2021/09/21 09:38:21;;;;;;;2.58;1.40;;;;;;;11.49;58.14;98363.69;1777798;81;21057;-86
2021/09/21 09:40:54;;;;;;;2.12;1.40;;;;;;;11.56;57.55;98356.87;1754572;80;21333;-86
2021/09/21 09:43:25;;;;;;;2.55;1.20;;;;;;;11.59;55.00;98366.09;1712031;84;21071;-85
2021/09/21 09:45:55;;;;;;;2.65;1.32;;;;;;;11.64;57.39;98357.54;1717635;83;20958;-86
2021/09/21 09:48:24;;;;;;;2.10;1.47;;;;;;;11.74;57.58;98360.34;1711597;84;21564;-85
2021/09/21 09:50:56;;;;;;;1.62;1.32;;;;;;;11.86;55.94;98354.25;1717477;83;21059;-85
2021/09/21 09:53:25;;;;;;;2.87;1.57;;;;;;;11.92;55.85;98364.69;1722526;82;20955;-84
2021/09/21 09:55:56;;;;;;;1.77;1.45;;;;;;;11.95;54.37;98366.39;1735940;83;21003;-85
2021/09/21 09:58:25;;;;;;;1.98;1.57;;;;;;;11.88;55.49;98353.30;1752849;81;20991;-86
2021/09/21 10:00:54;;;;;;;17.45;10.72;;;;;;;11.91;54.78;98355.47;1748740;81;20971;-84
2021/09/21 10:03:23;;;;;;;7.03;5.00;;;;;;;12.01;55.36;98367.55;1752385;81;21073;-83
2021/09/21 10:05:51;;;;;;;2.90;1.70;;;;;;;12.06;56.13;98355.04;1741272;81;20999;-83
2021/09/21 10:08:18;;;;;;;2.10;1.50;;;;;;;12.09;53.79;98370.02;1746415;82;21028;-84
2021/09/21 10:10:45;;;;;;;2.52;1.47;;;;;;;12.09;53.31;98361.57;1756449;81;21116;-85
2021/09/21 10:13:16;;;;;;;1.67;1.40;;;;;;;12.09;53.86;98372.67;1756547;81;20997;-84
2021/09/21 10:15:44;;;;;;;2.55;1.60;;;;;;;12.21;52.81;98373.62;1756241;81;21402;-84
2021/09/21 10:18:21;;;;;;;1.70;1.60;;;;;;;12.32;53.46;98369.77;1748103;81;21022;-85
2021/09/21 10:21:03;;;;;;;2.83;2.10;;;;;;;12.39;53.30;98368.67;1738607;82;21003;-85
2021/09/21 10:23:37;;;;;;;1.90;1.42;;;;;;;12.57;52.98;98361.05;1738709;82;21022;-85
2021/09/21 10:26:16;;;;;;;2.60;1.87;;;;;;;12.67;51.17;98361.16;1741518;82;20968;-85
2021/09/21 10:28:49;;;;;;;2.00;1.67;;;;;;;12.65;48.90;98362.53;1744483;81;21368;-86
2021/09/21 10:31:21;;;;;;;2.98;1.72;;;;;;;12.82;50.96;98361.58;1738822;81;21050;-86
2021/09/21 10:33:48;;;;;;;1.80;1.50;;;;;;;13.28;51.88;98353.80;1738848;82;20995;-85
2021/09/21 10:36:20;;;;;;;2.20;1.40;;;;;;;14.18;48.08;98361.70;1744134;80;21024;-85
2021/09/21 10:38:57;;;;;;;2.90;2.00;;;;;;;15.11;45.21;98352.68;1755169;81;21009;-85
2021/09/21 10:41:25;;;;;;;3.30;1.70;;;;;;;16.22;44.95;98340.70;1760905;81;20992;-85
2021/09/21 10:44:05;;;;;;;2.65;2.45;;;;;;;17.33;42.23;98338.47;1748316;81;21017;-85
2021/09/21 10:46:55;;;;;;;2.15;1.72;;;;;;;18.52;44.17;98342.43;1738325;82;21471;-85
2021/09/21 10:49:40;;;;;;;4.33;1.82;;;;;;;19.59;41.68;98334.86;1738221;82;21535;-84
2021/09/21 10:52:17;;;;;;;1.62;1.52;;;;;;;20.72;40.99;98322.00;1738444;82;21471;-84
2021/09/21 10:54:53;;;;;;;1.77;1.50;;;;;;;21.55;37.30;98325.92;1755982;82;20985;-85
2021/09/21 10:57:40;;;;;;;2.15;1.60;;;;;;;22.12;33.21;98323.27;1754804;81;21430;-85
2021/09/21 11:00:19;;;;;;;2.67;1.80;;;;;;;22.94;37.15;98322.31;1738229;82;21025;-85
2021/09/21 11:02:49;;;;;;;4.05;1.55;;;;;;;22.37;33.07;98334.11;1740477;82;21102;-84
2021/09/21 11:05:18;;;;;;;2.40;1.52;;;;;;;21.16;32.41;98347.41;1756333;81;21509;-85
2021/09/21 11:08:00;;;;;;;2.40;1.50;;;;;;;20.50;34.14;98326.55;1749916;82;21051;-84
2021/09/21 11:10:32;;;;;;;3.22;1.60;;;;;;;20.06;33.08;98338.77;1756237;81;20965;-84
2021/09/21 11:13:00;;;;;;;2.92;1.57;;;;;;;21.40;34.69;98323.80;1752598;81;21023;-84
2021/09/21 11:15:29;;;;;;;2.62;1.50;;;;;;;22.08;31.79;98328.51;1738705;82;21066;-83
2021/09/21 11:18:13;;;;;;;3.25;1.50;;;;;;;22.62;31.36;98323.75;1738571;82;21006;-84
2021/09/21 11:20:53;;;;;;;2.90;1.67;;;;;;;23.34;32.30;98315.73;1739174;82;22214;-83
2021/09/21 11:23:24;;;;;;;1.92;1.70;;;;;;;23.76;28.75;98317.91;1744720;82;21519;-83
2021/09/21 11:25:54;;;;;;;2.52;1.75;;;;;;;23.66;30.12;98323.16;1712811;82;21029;-83
2021/09/21 11:28:20;;;;;;;3.33;1.67;;;;;;;24.38;30.23;98317.55;1732464;81;21057;-84
2021/09/21 11:30:48;;;;;;;1.50;1.40;;;;;;;24.73;25.26;98316.47;1739113;81;20935;-84
2021/09/21 11:33:28;;;;;;;2.47;1.60;;;;;;;25.36;28.40;98328.95;1744299;82;20953;-84
2021/09/21 11:35:59;;;;;;;5.12;1.62;;;;;;;25.37;27.77;98317.94;1756783;81;21445;-84
2021/09/21 11:38:30;;;;;;;5.80;1.90;;;;;;;24.97;24.05;98357.95;1741545;82;21001;-84
2021/09/21 11:40:57;;;;;;;3.10;2.08;;;;;;;25.29;27.31;98327.25;1750057;82;21011;-84
2021/09/21 11:43:27;;;;;;;2.00;1.80;;;;;;;25.26;24.69;98330.22;1780181;79;21023;-85
2021/09/21 11:45:53;;;;;;;1.98;1.77;;;;;;;25.56;27.06;98325.40;1756514;82;21007;-85
2021/09/21 11:48:22;;;;;;;1.92;1.77;;;;;;;25.56;23.37;98322.69;1750082;82;21004;-83
2021/09/21 11:50:50;;;;;;;2.10;1.90;;;;;;;25.03;24.91;98324.89;1756514;82;21044;-83
2021/09/21 11:53:21;;;;;;;2.17;1.70;;;;;;;25.22;26.65;98328.75;1741452;82;20947;-84
2021/09/21 11:55:56;;;;;;;3.10;1.90;;;;;;;24.88;26.57;98323.83;1735551;83;21058;-84
2021/09/21 11:58:29;;;;;;;2.08;1.55;;;;;;;23.67;27.33;98327.59;1763801;81;20983;-83